Airfield :
LOGIN :

Register | Disclaimer

   EN    FR    IT 

 










Legend :    VFR   Marginal VFR   IFR   Intensive IFR   Very Intensive IFR
Visi :
Ceiling :
>= 8 km
>= 3000ft
5 to 8 km
1000 to 3000 ft
1500m to 5 km
500 to 1000 ft
800 to 1500m
200 to 500 ft
< 800m
< 200 ft
Symbols :   Thunderstorms  Fog  Heavy snow  Heavy precipitations  Wind > 20 kt
SIGMETs :     Misc.  Thunderstorms  Icing  Turbulence  Mountain Waves  Volcanic Ashes






- Airport Elevation : 485 ft
- IATA code : QSA


LELL - Sabadell

CURRENT METAR :
  • 251000Z 00000KT 9999 FEW025 SCT070 13/10 Q1019

EXPIRED METARs :
  • 250930Z 00000KT 9999 FEW020 BKN060 12/09 Q1019
  • 250900Z 00000KT 9999 SCT020 SCT040 BKN065 11/09 Q1019
  • 250830Z 00000KT 9999 SCT020 SCT040 BKN065 10/09 Q1019
  • 250800Z 00000KT 9999 SCT015 SCT040 BKN065 09/08 Q1019
  • 250730Z 00000KT 9999 SCT015 BKN040 09/08 Q1019
  • 250700Z 00000KT 9999 SCT015 BKN040 09/08 Q1019

TAF TAF LELL
Valid from the 25 at 09:00 until the 26 at 09:00 UTC


250800Z 2509/2609 VRB05KT 9999 FEW040 TX17/2514Z TN10/2607Z
PROB30
TEMPO 2522/2607 3000 BR BKN009
PROB40 2606/2609 4000 RA BKN015



MET'MAP, your aeronautical weather chart ! - Copyright ORBIFLY December 2007 - Disclaimer

ORBIFLY MET'MAP TEAM :

Programming & Development : Alexandra Zaïnal
Concept & original design : Baudouin d'Aumeries
Assistance for programming : Marc-Olivier Méhu
Technical & hardware support : Manuel Goepfert

Contact : metmap@orbifly.com




SOURCES & CREDITS :

   NOAA